Latest Weather Observations for Scoresby

IDV60901

Issued at 3:31 am EST Thursday 24 August 2017 (issued every 10 minutes, with the page automatically refreshed every 10 minutes)

About weather observations | Map of Melbourne area stations | Latest observations for Melbourne area | Other Formats
Station Details ID: 086104 Name: SCORESBY RESEARCH INSTITUTE Lat: -37.87 Lon: 145.26 Height: 80.0 m
Data from the previous 72 hours. | See also: Recent months at Scoresby
Date/Time
EST
Temp
°C
App
Temp
°C
Dew
Point
°C
Rel
Hum
%
Delta-T
°C
Wind Press
QNH
hPa
Press
MSL
hPa
Rain since
9am
mm
Dir  Spd
km/h
Gust
km/h
Spd
kts
Gust
kts
24/03:30am 7.3 6.5 6.4 94 0.4 CALM 0 0 0 0 - - 12.4
24/03:00am 7.5 6.7 6.6 94 0.4 CALM 0 0 0 0 - - 12.4
24/02:30am 7.3 6.5 6.4 94 0.4 CALM 0 0 0 0 - - 12.2
24/02:00am 7.3 6.5 6.4 94 0.4 CALM 0 0 0 0 - - 11.4
24/01:30am 7.4 6.6 6.5 94 0.4 CALM 0 0 0 0 - - 11.4
24/01:00am 7.6 6.8 6.7 94 0.4 CALM 0 0 0 0 - - 11.4
24/12:30am 7.4 6.6 6.3 93 0.5 CALM 0 2 0 1 - - 11.4
24/12:00am 7.9 7.2 6.8 93 0.5 CALM 0 0 0 0 - - 11.4
 
Date/Time
EST
Temp
°C
App
Temp
°C
Dew
Point
°C
Rel
Hum
%
Delta-T
°C
Wind Press
QNH
hPa
Press
MSL
hPa
Rain since
9am
mm
Dir  Spd
km/h
Gust
km/h
Spd
kts
Gust
kts
23/11:30pm 8.1 7.0 7.0 93 0.5 NNW 2 7 1 4 - - 11.4
23/11:00pm 8.1 7.4 7.0 93 0.5 CALM 0 0 0 0 - - 11.4
23/10:30pm 8.3 7.2 7.1 92 0.6 NNW 2 6 1 3 - - 10.8
23/10:00pm 8.3 7.2 7.1 92 0.6 NNE 2 6 1 3 - - 10.6
23/09:30pm 8.3 7.2 7.1 92 0.6 NNE 2 7 1 4 - - 10.6
23/09:00pm 8.3 6.5 7.2 93 0.5 NE 6 7 3 4 - - 10.6
23/08:30pm 8.3 7.3 7.2 93 0.5 NNE 2 6 1 3 - - 10.6
23/08:00pm 8.5 7.1 7.4 93 0.5 N 4 7 2 4 - - 10.6
23/07:30pm 8.4 7.4 7.3 93 0.5 NE 2 6 1 3 - - 10.6
23/07:00pm 8.5 7.9 7.4 93 0.5 CALM 0 0 0 0 - - 10.6
23/06:30pm 8.6 7.3 7.5 93 0.5 W 4 6 2 3 - - 10.6
23/06:00pm 8.7 6.8 7.6 93 0.5 W 7 15 4 8 - - 9.0
23/05:30pm 8.9 7.1 7.8 93 0.5 W 7 13 4 7 - - 7.0
23/05:00pm 8.8 6.5 7.6 92 0.6 WSW 9 19 5 10 - - 5.0
23/04:30pm 9.1 5.7 7.7 91 0.7 SW 15 24 8 13 - - 4.2
23/04:16pm 9.8 5.3 7.1 83 1.3 WSW 20 43 11 23 - - 3.4
23/04:00pm 14.9 11.6 6.2 56 4.2 NNW 13 24 7 13 - - 0.6
23/03:30pm 15.6 12.6 5.8 52 4.7 NW 11 20 6 11 - - 0.6
23/03:00pm 15.7 12.2 5.6 51 4.9 NW 13 22 7 12 - - 0.6
23/02:30pm 15.7 12.4 6.2 53 4.6 NW 13 22 7 12 - - 0.6
23/02:00pm 15.4 12.7 7.2 58 4.1 NNW 11 22 6 12 - - 0.6
23/01:30pm 14.7 12.5 7.7 63 3.5 N 9 17 5 9 - - 0.4
23/01:00pm 15.1 11.7 5.9 54 4.4 NNW 13 22 7 12 - - 0.0
23/12:30pm 15.0 11.6 6.0 55 4.3 NNW 13 24 7 13 - - 0.0
23/12:00pm 14.7 11.5 7.0 60 3.8 N 13 20 7 11 - - 0.0
23/11:30am 15.0 12.3 7.3 60 3.8 N 11 22 6 12 - - 0.0
23/11:00am 14.2 11.0 7.0 62 3.5 N 13 19 7 10 - - 0.0
23/10:30am 13.8 10.6 6.9 63 3.4 N 13 24 7 13 - - 0.0
23/10:00am 13.8 10.5 6.4 61 3.6 NNW 13 24 7 13 - - 0.0
23/09:30am 13.2 10.8 7.0 66 3.0 N 9 19 5 10 - - 0.0
23/09:00am 12.3 9.5 6.8 69 2.6 NNE 11 20 6 11 - - 0.0
23/08:30am 11.6 9.1 6.5 71 2.4 NNE 9 13 5 7 - - 0.0
23/08:00am 10.9 8.8 6.5 74 2.1 NE 7 15 4 8 - - 0.0
23/07:30am 10.2 7.6 6.2 76 1.9 NNE 9 19 5 10 - - 0.0
23/07:00am 9.9 7.6 5.9 76 1.8 NNE 7 15 4 8 - - 0.0
23/06:30am 9.8 7.5 5.6 75 1.9 NNE 7 13 4 7 - - 0.0
23/06:00am 9.8 6.7 5.6 75 1.9 NE 11 19 6 10 - - 0.0
23/05:30am 9.7 6.6 5.5 75 1.9 NE 11 17 6 9 - - 0.0
23/05:00am 9.5 7.3 5.1 74 2.0 NNE 6 9 3 5 - - 0.0
23/04:30am 9.9 7.1 5.1 72 2.2 NNE 9 13 5 7 - - 0.0
23/04:00am 10.0 7.5 5.0 71 2.3 NE 7 13 4 7 - - 0.0
23/03:30am 10.2 7.7 5.0 70 2.4 NE 7 13 4 7 - - 0.0
23/03:00am 10.0 7.7 5.0 71 2.3 NNE 6 9 3 5 - - 0.0
23/02:30am 7.3 5.4 4.8 84 1.1 NE 4 7 2 4 - - 0.0
23/02:00am 7.5 6.0 4.8 83 1.2 NNE 2 9 1 5 - - 0.0
23/01:30am 8.8 6.8 4.2 73 2.0 NE 4 9 2 5 - - 0.0
23/01:00am 9.5 7.0 4.7 72 2.1 NE 7 11 4 6 - - 0.0
23/12:30am 8.7 6.4 4.7 76 1.8 NE 6 9 3 5 - - 0.0
23/12:00am 9.6 8.2 5.4 75 1.9 NNE 2 7 1 4 - - 0.0
 
Date/Time
EST
Temp
°C
App
Temp
°C
Dew
Point
°C
Rel
Hum
%
Delta-T
°C
Wind Press
QNH
hPa
Press
MSL
hPa
Rain since
9am
mm
Dir  Spd
km/h
Gust
km/h
Spd
kts
Gust
kts
22/11:30pm 10.0 7.7 5.8 75 1.9 NE 7 11 4 6 - - 0.0
22/11:00pm 8.3 6.8 4.9 79 1.5 ENE 2 6 1 3 - - 0.0
22/10:30pm 10.3 8.9 5.3 71 2.3 N 2 6 1 3 - - 0.0
22/10:00pm 11.5 9.4 6.0 69 2.6 NNE 6 13 3 7 - - 0.0
22/09:30pm 12.4 10.8 6.5 67 2.8 N 4 7 2 4 - - 0.0
22/09:00pm 12.5 10.9 6.5 67 2.9 N 4 7 2 4 - - 0.0
22/08:30pm 11.9 10.5 7.2 73 2.3 NNE 4 6 2 3 - - 0.0
22/08:00pm 10.9 10.3 7.6 80 1.6 CALM 0 0 0 0 - - 0.0
22/07:30pm 11.4 10.8 7.5 77 1.9 CALM 0 0 0 0 - - 0.0
22/07:00pm 11.4 10.8 7.5 77 1.9 CALM 0 0 0 0 - - 0.0
22/06:30pm 12.2 11.8 8.1 76 2.0 CALM 0 0 0 0 - - 0.0
22/06:00pm 13.1 12.0 6.9 66 3.0 SSE 2 4 1 2 - - 0.0
22/05:30pm 13.6 12.1 6.9 64 3.3 S 4 7 2 4 - - 0.0
22/05:00pm 14.2 13.5 7.0 62 3.5 CALM 0 0 0 0 - - 0.0
22/04:30pm 14.6 12.7 6.7 59 3.9 WSW 6 7 3 4 - - 0.0
22/04:00pm 14.5 12.5 6.1 57 4.0 WSW 6 11 3 6 - - 0.0
22/03:30pm 14.7 13.6 6.8 59 3.9 SW 2 7 1 4 - - 0.0
22/03:00pm 14.8 12.7 6.6 58 4.0 WSW 7 13 4 7 - - 0.0
22/02:30pm 15.6 12.9 5.8 52 4.7 NNE 9 17 5 9 - - 0.0
22/02:00pm 15.4 12.7 5.6 52 4.7 NNW 9 15 5 8 - - 0.0
22/01:30pm 15.0 12.4 4.4 49 4.9 NW 7 13 4 7 - - 0.0
22/01:00pm 16.3 13.5 5.3 48 5.3 NNW 9 17 5 9 - - 0.0
22/12:30pm 14.4 11.5 4.7 52 4.5 NNW 9 19 5 10 - - 0.0
22/12:00pm 14.0 11.1 4.6 53 4.4 NW 9 17 5 9 - - 0.0
22/11:30am 14.8 12.2 5.9 55 4.3 N 9 17 5 9 - - 0.0
22/11:00am 14.3 11.7 5.9 57 4.0 N 9 17 5 9 - - 0.0
22/10:30am 13.5 10.7 5.2 57 3.9 N 9 19 5 10 - - 0.0
22/10:00am 11.9 8.5 3.9 58 3.6 N 11 17 6 9 - - 0.0
22/09:30am 11.3 8.0 4.5 63 3.1 NNE 11 19 6 10 - - 0.0
22/09:00am 10.3 7.7 4.0 65 2.8 NNE 7 15 4 8 - - 0.6
22/08:30am 9.1 6.0 3.7 69 2.4 NNE 9 13 5 7 - - 0.6
22/08:00am 7.3 4.6 3.5 77 1.6 NNE 7 13 4 7 - - 0.6
22/07:30am 6.3 3.7 3.1 80 1.3 NNE 6 11 3 6 - - 0.6
22/07:00am 5.9 3.7 3.2 83 1.1 NNE 4 7 2 4 - - 0.6
22/06:30am 4.5 2.5 2.5 87 0.8 NNE 2 6 1 3 - - 0.6
22/06:00am 4.5 2.2 2.5 87 0.8 NE 4 7 2 4 - - 0.6
22/05:30am 4.6 2.3 2.5 86 0.9 NE 4 6 2 3 - - 0.6
22/05:00am 4.7 2.8 2.6 86 0.9 NE 2 6 1 3 - - 0.6
22/04:30am 4.5 2.9 2.5 87 0.8 CALM 0 0 0 0 - - 0.6
22/04:00am 5.1 3.5 2.6 84 1.0 CALM 0 0 0 0 - - 0.6
22/03:30am 5.3 3.8 3.0 85 1.0 CALM 0 6 0 3 - - 0.6
22/03:00am 5.2 3.3 3.1 86 0.9 NNW 2 6 1 3 - - 0.6
22/02:30am 5.4 3.9 3.1 85 1.0 CALM 0 2 0 1 - - 0.6
22/02:00am 4.8 3.2 2.7 86 0.9 CALM 0 2 0 1 - - 0.6
22/01:30am 6.6 5.3 3.9 83 1.2 CALM 0 2 0 1 - - 0.6
22/01:00am 7.5 5.3 3.6 76 1.7 N 4 6 2 3 - - 0.6
22/12:30am 8.3 6.2 3.9 74 1.9 N 4 9 2 5 - - 0.6
22/12:00am 8.6 6.9 4.0 73 2.0 N 2 6 1 3 - - 0.6
 
Date/Time
EST
Temp
°C
App
Temp
°C
Dew
Point
°C
Rel
Hum
%
Delta-T
°C
Wind Press
QNH
hPa
Press
MSL
hPa
Rain since
9am
mm
Dir  Spd
km/h
Gust
km/h
Spd
kts
Gust
kts
21/11:30pm 9.1 7.0 3.7 69 2.4 NNE 4 7 2 4 - - 0.6
21/11:00pm 9.2 6.5 3.8 69 2.4 NE 7 11 4 6 - - 0.6
21/10:30pm 9.3 6.6 3.7 68 2.4 NNE 7 9 4 5 - - 0.6
21/10:00pm 9.2 6.7 3.8 69 2.4 NNE 6 9 3 5 - - 0.6
21/09:30pm 9.2 6.7 4.0 70 2.3 NNE 6 9 3 5 - - 0.6
21/09:00pm 9.3 6.3 4.1 70 2.3 NNE 9 11 5 6 - - 0.6
21/08:30pm 9.3 6.7 4.3 71 2.2 NNE 7 13 4 7 - - 0.6
21/08:00pm 9.4 7.4 4.4 71 2.2 N 4 7 2 4 - - 0.6
21/07:30pm 9.2 7.2 4.6 73 2.1 N 4 6 2 3 - - 0.6
21/07:00pm 9.7 8.0 4.1 68 2.5 NNE 2 6 1 3 - - 0.6
21/06:30pm 9.7 7.3 4.1 68 2.5 NE 6 11 3 6 - - 0.6
21/06:00pm 9.9 7.5 4.5 69 2.4 NE 6 9 3 5 - - 0.6
21/05:30pm 10.0 7.4 4.2 67 2.6 NNE 7 13 4 7 - - 0.6
21/05:00pm 10.5 7.5 4.2 65 2.8 NE 9 15 5 8 - - 0.6
21/04:30pm 10.9 7.3 5.0 67 2.7 NE 13 19 7 10 - - 0.6
21/04:00pm 10.4 7.2 5.0 69 2.5 NNE 11 17 6 9 - - 0.6
21/03:30pm 10.4 6.5 5.2 70 2.4 NE 15 22 8 12 - - 0.6
21/03:00pm 9.5 5.9 4.9 73 2.1 NE 13 22 7 12 - - 0.6
21/02:30pm 9.4 5.9 5.4 76 1.8 NNE 13 20 7 11 - - 0.6
21/02:00pm 9.0 6.3 5.6 79 1.5 NNE 9 15 5 8 - - 0.6
21/01:30pm 8.8 6.5 5.7 81 1.4 NNE 7 11 4 6 - - 0.6
21/01:00pm 8.7 5.5 5.1 78 1.6 NNE 11 19 6 10 - - 0.6
21/12:30pm 8.6 5.2 4.2 74 1.9 NNE 11 22 6 12 - - 0.6
21/12:00pm 8.4 4.6 4.0 74 1.9 NNE 13 20 7 11 - - 0.6
21/11:30am 7.5 3.9 4.8 83 1.2 NE 13 22 7 12 - - 0.6
21/11:00am 7.1 3.5 4.9 86 1.0 NE 13 20 7 11 - - 0.6
21/10:30am 7.1 3.0 4.4 83 1.2 NNE 15 26 8 14 - - 0.4
21/10:00am 7.0 4.1 4.5 84 1.1 NNE 9 17 5 9 - - 0.2
21/09:30am 7.0 4.5 4.5 84 1.1 NNE 7 15 4 8 - - 0.2
21/09:00am 6.9 4.3 4.2 83 1.2 NNE 7 11 4 6 - - 0.6
21/08:30am 6.7 4.6 3.9 82 1.2 NNE 4 7 2 4 - - 0.2
21/08:00am 7.1 3.9 2.8 74 1.8 NE 9 17 5 9 - - 0.2
21/07:30am 7.4 4.4 1.9 68 2.3 NNE 7 17 4 9 - - 0.2
21/07:00am 7.4 4.4 1.9 68 2.3 NNE 7 15 4 8 - - 0.2
21/06:30am 7.3 3.9 2.0 69 2.2 NNE 9 15 5 8 - - 0.2
21/06:00am 7.2 3.4 1.9 69 2.2 NNE 11 17 6 9 - - 0.2
21/05:30am 7.0 3.3 2.1 71 2.0 NNE 11 17 6 9 - - 0.2
21/05:00am 7.1 3.0 2.2 71 2.0 NNE 13 20 7 11 - - 0.2
21/04:30am 7.1 3.8 2.4 72 1.9 NNE 9 17 5 9 - - 0.2
21/04:00am 7.4 4.1 2.3 70 2.1 NE 9 17 5 9 - - 0.2

Latest Capital City Observations: Canberra | Sydney | Melbourne | Brisbane | Adelaide | Perth | Hobart | Darwin

Other Formats:

Comma delimited format used in spreadsheet applications
http://www.bom.gov.au/fwo/IDV60901/IDV60901.95867.axf

JavaScript Object Notation format (JSON) in row-major order
http://www.bom.gov.au/fwo/IDV60901/IDV60901.95867.json